createdAt,value
2022-08-18T00:02:01.287Z,103737.59
2022-08-18T00:04:36.635Z,103758.84
2022-08-18T00:07:21.921Z,103788.91
2022-08-18T00:09:48.781Z,103808.38
2022-08-18T00:12:22.810Z,103833.13
2022-08-18T00:14:50.540Z,103851.69
2022-08-18T00:17:18.397Z,103869.31
2022-08-18T00:19:47.760Z,103879.09
2022-08-18T00:22:19.090Z,103894.13
2022-08-18T00:24:49.449Z,103900.28
2022-08-18T00:27:21.666Z,103922.41
2022-08-18T00:29:50.219Z,103923.28
2022-08-18T00:32:29.731Z,103911.78
2022-08-18T00:34:57.115Z,103919.75
2022-08-18T00:37:24.787Z,103903.78
2022-08-18T00:39:53.245Z,103896.69
2022-08-18T00:42:29.877Z,103894.03
2022-08-18T00:45:01.985Z,103892.28
2022-08-18T00:47:33.084Z,103885.22
2022-08-18T00:50:15.492Z,103872.84
2022-08-18T00:52:47.826Z,103864.06
2022-08-18T00:55:18.112Z,103840.34
2022-08-18T00:57:48.458Z,103812.16
2022-08-18T01:00:15.483Z,103789.25
2022-08-18T01:02:51.559Z,103772.56
2022-08-18T01:05:40.814Z,103764.72
2022-08-18T01:08:12.013Z,103768.31
2022-08-18T01:10:40.560Z,103770.09
2022-08-18T01:13:08.090Z,103771.06
2022-08-18T01:15:35.222Z,103755.25
2022-08-18T01:18:24.890Z,103736.84
2022-08-18T01:21:21.304Z,103714.97
2022-08-18T01:23:49.246Z,103695.59
2022-08-18T01:26:18.056Z,103682.50
2022-08-18T01:28:46.708Z,103666.72
2022-08-18T01:31:32.602Z,103664.16
2022-08-18T01:34:01.111Z,103682.69
2022-08-18T01:36:29.528Z,103685.28
2022-08-18T01:38:57.749Z,103682.72
2022-08-18T01:41:30.170Z,103680.97
2022-08-18T01:43:59.157Z,103673.06
2022-08-18T01:46:27.983Z,103685.41
2022-08-18T01:48:55.345Z,103706.50
2022-08-18T01:51:38.843Z,103742.44
2022-08-18T01:54:08.585Z,103798.81
2022-08-18T01:56:36.747Z,103835.75
2022-08-18T01:59:05.297Z,103857.72
2022-08-18T02:01:36.412Z,103855.88
2022-08-18T02:04:33.203Z,103858.53
2022-08-18T02:06:56.151Z,103873.47
2022-08-18T02:09:23.675Z,103875.19
2022-08-18T02:11:53.113Z,103884.84
2022-08-18T02:14:25.088Z,103881.25
2022-08-18T02:17:02.431Z,103888.25
2022-08-18T02:19:38.371Z,103882.03
2022-08-18T02:22:07.782Z,103894.38
2022-08-18T02:24:34.628Z,103894.34
2022-08-18T02:27:01.691Z,103904.94
2022-08-18T02:29:28.842Z,103906.72
2022-08-18T02:31:55.812Z,103907.56
2022-08-18T02:34:23.004Z,103912.84
2022-08-18T02:36:49.977Z,103913.72
2022-08-18T02:39:16.889Z,103919.91
2022-08-18T02:41:44.256Z,103928.69
2022-08-18T02:44:11.438Z,103934.91
2022-08-18T02:46:38.639Z,103939.31
2022-08-18T02:49:06.948Z,103944.59
2022-08-18T02:51:34.134Z,103940.25
2022-08-18T02:54:01.064Z,103948.16
2022-08-18T02:56:33.749Z,103959.66
2022-08-18T02:59:11.920Z,103965.84
2022-08-18T03:01:41.354Z,103969.38
2022-08-18T03:04:12.468Z,103978.19
2022-08-18T03:06:39.609Z,103987.03
2022-08-18T03:09:08.748Z,103983.50
2022-08-18T03:11:36.679Z,103987.00
2022-08-18T03:14:05.535Z,103997.59
2022-08-18T03:16:34.187Z,104013.56
2022-08-18T03:19:01.981Z,104018.84
2022-08-18T03:21:31.843Z,104017.06
2022-08-18T03:24:01.207Z,104025.00
2022-08-18T03:26:31.050Z,104025.00
2022-08-18T03:29:02.633Z,104008.13
2022-08-18T03:31:31.494Z,104002.00
2022-08-18T03:33:59.934Z,103978.03
2022-08-18T03:36:34.864Z,103991.34
2022-08-18T03:39:07.514Z,103990.44
2022-08-18T03:41:57.495Z,103987.78
2022-08-18T03:44:23.747Z,103989.50
2022-08-18T03:46:51.157Z,103975.31
2022-08-18T03:49:20.880Z,103969.13
2022-08-18T03:51:48.709Z,103974.47
2022-08-18T03:54:18.675Z,103971.78
2022-08-18T03:56:47.478Z,103963.81
2022-08-18T03:59:20.260Z,103958.50
2022-08-18T04:01:49.938Z,103952.31
2022-08-18T04:04:20.357Z,103937.22
2022-08-18T04:07:04.695Z,103925.72
2022-08-18T04:09:33.165Z,103915.97
2022-08-18T04:12:16.475Z,103910.72
2022-08-18T04:14:48.039Z,103905.34
2022-08-18T04:17:24.821Z,103894.75
2022-08-18T04:19:53.197Z,103892.94
2022-08-18T04:22:20.229Z,103870.81
2022-08-18T04:24:49.660Z,103861.88
2022-08-18T04:27:17.767Z,103853.00
2022-08-18T04:29:44.546Z,103848.56
2022-08-18T04:32:11.545Z,103842.31
2022-08-18T04:34:38.399Z,103839.56
2022-08-18T04:37:05.191Z,103844.81
2022-08-18T04:39:32.113Z,103835.91
2022-08-18T04:41:59.418Z,103828.78
2022-08-18T04:44:26.440Z,103822.53
2022-08-18T04:46:54.940Z,103813.59
2022-08-18T04:49:25.831Z,103813.50
2022-08-18T04:52:26.764Z,103810.75
2022-08-18T04:55:01.675Z,103811.59
2022-08-18T04:57:29.254Z,103801.78
2022-08-18T05:00:00.746Z,103781.25
2022-08-18T05:02:28.027Z,103773.09
2022-08-18T05:04:54.779Z,103762.34
2022-08-18T05:07:23.056Z,103747.16
2022-08-18T05:09:52.013Z,103730.28
2022-08-18T05:12:18.937Z,103712.47
2022-08-18T05:14:47.940Z,103693.03
2022-08-18T05:17:16.312Z,103678.81
2022-08-18T05:19:46.418Z,103673.47
2022-08-18T05:22:18.402Z,103656.66
2022-08-18T05:24:45.648Z,103644.19
2022-08-18T05:27:13.493Z,103641.50
2022-08-18T05:29:45.536Z,103637.88
2022-08-18T05:32:38.274Z,103626.19
2022-08-18T05:35:12.761Z,103611.97
2022-08-18T05:37:57.883Z,103610.06
2022-08-18T05:40:26.238Z,103611.69
2022-08-18T05:42:56.093Z,103601.03
2022-08-18T05:45:23.993Z,103594.69
2022-08-18T05:47:51.500Z,103597.25
2022-08-18T05:50:20.395Z,103594.19
2022-08-18T05:53:14.177Z,103591.22
2022-08-18T05:55:59.615Z,103564.44
2022-08-18T05:58:36.655Z,103525.31
2022-08-18T06:01:15.721Z,103508.22
2022-08-18T06:03:49.065Z,103466.38
2022-08-18T06:06:24.439Z,103418.19
2022-08-18T06:09:05.712Z,103360.25
2022-08-18T06:11:32.637Z,103315.38
2022-08-18T06:14:01.395Z,103278.97
2022-08-18T06:17:09.945Z,103203.94
2022-08-18T06:20:10.153Z,103141.72
2022-08-18T06:23:08.254Z,103084.28
2022-08-18T06:25:43.273Z,103033.09
2022-08-18T06:28:15.789Z,102988.81
2022-08-18T06:30:42.640Z,102955.31
2022-08-18T06:33:42.711Z,102918.25
2022-08-18T06:36:21.698Z,102909.19
2022-08-18T06:39:22.487Z,102894.06
2022-08-18T06:41:51.244Z,102878.13
2022-08-18T06:44:25.610Z,102871.13
2022-08-18T06:47:17.400Z,102853.72
2022-08-18T06:50:07.350Z,102840.72
2022-08-18T06:52:37.905Z,102823.88
2022-08-18T06:55:15.974Z,102812.91
2022-08-18T06:57:58.544Z,102809.53
2022-08-18T07:00:32.831Z,102823.88
2022-08-18T07:03:12.995Z,102833.47
2022-08-18T07:05:56.893Z,102853.16
2022-08-18T07:08:43.132Z,102852.25
2022-08-18T07:11:22.678Z,102854.13
2022-08-18T07:14:09.428Z,102871.59
2022-08-18T07:19:29.802Z,102849.50
2022-08-18T07:22:13.575Z,102830.44
2022-08-18T07:24:45.034Z,102818.22
2022-08-18T07:27:19.189Z,102789.91
2022-08-18T07:30:00.641Z,102765.53
2022-08-18T07:32:35.485Z,102728.59
2022-08-18T07:35:07.019Z,102714.56
2022-08-18T07:37:42.961Z,102685.75
2022-08-18T07:40:20.829Z,102632.31
2022-08-18T07:43:02.597Z,102558.72
2022-08-18T07:45:44.433Z,102494.16
2022-08-18T07:48:40.633Z,102444.03
2022-08-18T07:51:19.529Z,102444.56
2022-08-18T07:54:45.317Z,102456.53
2022-08-18T07:57:20.020Z,102444.72
2022-08-18T08:00:01.854Z,102790.72
2022-08-18T08:02:50.139Z,102775.50
2022-08-18T08:05:39.689Z,102735.69
2022-08-18T08:08:24.972Z,102698.59
2022-08-18T08:11:17.100Z,102645.38
2022-08-18T08:13:55.182Z,102622.28
2022-08-18T08:16:46.510Z,102599.22
2022-08-18T08:19:42.446Z,102579.94
2022-08-18T08:22:16.151Z,102570.66
2022-08-18T08:25:13.554Z,102580.34
2022-08-18T08:28:07.663Z,102622.56
2022-08-18T08:30:44.405Z,102637.53
2022-08-18T08:33:26.857Z,102651.50
2022-08-18T08:36:04.260Z,102639.06
2022-08-18T08:39:00.338Z,102605.72
2022-08-18T08:41:35.475Z,102542.88
2022-08-18T08:44:14.983Z,102473.34
2022-08-18T08:47:02.484Z,102441.59
2022-08-18T08:49:54.780Z,102380.19
2022-08-18T08:52:50.865Z,102277.84
2022-08-18T08:55:25.500Z,102196.22
2022-08-18T08:58:03.057Z,102148.56
2022-08-18T09:00:31.067Z,102156.81
2022-08-18T09:03:19.571Z,102104.47
2022-08-18T09:06:00.267Z,102073.66
2022-08-18T09:08:42.839Z,102066.66
2022-08-18T09:11:40.343Z,102069.94
2022-08-18T09:14:22.012Z,102064.31
2022-08-18T09:17:13.746Z,102043.28
2022-08-18T09:20:02.812Z,102048.88
2022-08-18T09:22:44.321Z,102031.25
2022-08-18T09:25:33.007Z,102004.84
2022-08-18T09:28:14.283Z,102012.63
2022-08-18T09:30:47.742Z,101980.72
2022-08-18T09:33:24.560Z,101988.75
2022-08-18T09:36:19.916Z,101999.75
2022-08-18T09:39:18.514Z,102019.72
2022-08-18T09:42:03.346Z,102018.53
2022-08-18T09:44:48.649Z,101984.53
2022-08-18T09:47:22.301Z,101925.25
2022-08-18T09:49:55.896Z,101909.91
2022-08-18T09:52:23.956Z,101873.53
2022-08-18T09:54:51.982Z,101846.00
2022-08-18T09:57:24.227Z,101822.75
2022-08-18T09:59:55.450Z,101801.38
2022-08-18T10:02:37.294Z,101803.38
2022-08-18T10:05:15.989Z,101784.00
2022-08-18T10:08:07.250Z,101708.16
2022-08-18T10:11:00.202Z,101661.00
2022-08-18T10:13:38.979Z,101657.44
2022-08-18T10:16:57.510Z,101647.47
2022-08-18T10:19:52.533Z,101642.09
2022-08-18T10:22:43.269Z,101666.16
2022-08-18T10:25:22.168Z,101672.25
2022-08-18T10:27:56.537Z,101705.63
2022-08-18T10:30:31.152Z,101731.19
2022-08-18T10:33:17.251Z,101723.47
2022-08-18T10:36:02.297Z,101741.31
2022-08-18T10:38:41.233Z,101745.78
2022-08-18T10:41:22.708Z,101753.41
2022-08-18T10:43:57.206Z,101765.63
2022-08-18T10:46:31.980Z,101806.34
2022-08-18T10:48:59.515Z,101823.50
2022-08-18T10:51:58.040Z,101815.22
2022-08-18T10:54:30.487Z,101821.13
2022-08-18T10:57:34.082Z,101825.53
2022-08-18T11:00:18.741Z,101835.59
2022-08-18T11:03:01.911Z,101809.44
2022-08-18T11:05:32.992Z,101816.06
2022-08-18T11:11:24.788Z,101850.00
2022-08-18T11:13:54.377Z,101859.03
2022-08-18T11:16:47.785Z,101853.16
2022-08-18T11:19:17.076Z,101857.84
2022-08-18T11:21:51.699Z,101872.59
2022-08-18T11:24:28.409Z,101851.50
2022-08-18T11:26:57.031Z,101842.78
2022-08-18T11:29:38.531Z,101820.25
2022-08-18T11:32:22.007Z,101800.75
2022-08-18T11:34:59.588Z,101799.06
2022-08-18T11:38:00.471Z,101807.53
2022-08-18T11:41:18.872Z,101764.66
2022-08-18T11:43:48.410Z,101735.72
2022-08-18T11:46:28.208Z,101715.91
2022-08-18T11:48:59.087Z,101724.56
2022-08-18T11:51:32.436Z,101737.66
2022-08-18T11:54:05.105Z,101705.28
2022-08-18T11:56:38.181Z,101690.19
2022-08-18T12:02:25.975Z,101685.19
2022-08-18T12:04:57.902Z,101684.72
2022-08-18T12:07:32.155Z,101692.84
2022-08-18T12:10:18.350Z,101697.31
2022-08-18T12:12:50.021Z,101680.84
2022-08-18T12:15:24.596Z,101667.78
2022-08-18T12:17:53.619Z,101656.38
2022-08-18T12:20:22.698Z,101649.78
2022-08-18T12:22:49.987Z,101650.72
2022-08-18T12:25:25.189Z,101651.19
2022-08-18T12:27:55.768Z,101639.66
2022-08-18T12:30:23.397Z,101653.03
2022-08-18T12:32:56.270Z,101599.59
2022-08-18T12:35:27.704Z,101562.06
2022-08-18T12:40:44.245Z,101554.59
2022-08-18T12:43:11.525Z,101545.91
2022-08-18T12:45:38.996Z,101533.94
2022-08-18T12:48:07.179Z,101528.19
2022-08-18T12:50:50.026Z,101534.00
2022-08-18T12:53:30.683Z,101522.41
2022-08-18T12:56:30.371Z,101515.53
2022-08-18T12:59:00.990Z,101497.81
2022-08-18T13:01:32.376Z,101510.59
2022-08-18T13:04:12.842Z,101506.41
2022-08-18T13:06:58.799Z,101501.56
2022-08-18T13:09:35.786Z,101502.72
2022-08-18T13:12:18.443Z,101501.81
2022-08-18T13:14:47.380Z,101497.63
2022-08-18T13:17:32.861Z,101495.97
2022-08-18T13:20:13.815Z,101491.75
2022-08-18T13:22:41.023Z,101498.50
2022-08-18T13:25:13.133Z,101491.28
2022-08-18T13:28:00.677Z,101489.63
2022-08-18T13:30:30.981Z,101484.56
2022-08-18T13:33:02.413Z,101477.13
2022-08-18T13:35:37.870Z,101480.88
2022-08-18T13:38:12.438Z,101471.75
2022-08-18T13:40:47.107Z,101475.03
2022-08-18T13:43:17.480Z,101483.13
2022-08-18T13:45:52.903Z,101479.34
2022-08-18T13:48:20.621Z,101490.91
2022-08-18T13:50:47.636Z,101495.53
2022-08-18T13:53:21.886Z,101512.06
2022-08-18T13:55:49.411Z,101501.84
2022-08-18T13:58:20.561Z,101505.00
2022-08-18T14:00:54.338Z,101505.44
2022-08-18T14:03:42.228Z,101505.69
2022-08-18T14:06:13.056Z,101507.31
2022-08-18T14:08:40.579Z,101500.31
2022-08-18T14:11:08.970Z,101498.53
2022-08-18T14:13:38.204Z,101500.19
2022-08-18T14:16:16.220Z,101489.22
2022-08-18T14:19:09.688Z,101480.16
2022-08-18T14:22:06.802Z,101493.50
2022-08-18T14:24:58.392Z,101505.72
2022-08-18T14:27:35.093Z,101502.69
2022-08-18T14:30:09.315Z,101496.88
2022-08-18T14:32:49.186Z,101504.25
2022-08-18T14:35:33.223Z,101515.03
2022-08-18T14:38:07.147Z,101543.56
2022-08-18T14:40:38.805Z,101558.59
2022-08-18T14:43:14.693Z,101570.00
2022-08-18T14:45:48.888Z,101573.00
2022-08-18T14:48:22.257Z,101574.38
2022-08-18T14:50:55.320Z,101575.66
2022-08-18T14:53:25.909Z,101583.63
2022-08-18T14:55:54.720Z,101587.50
2022-08-18T14:58:27.799Z,101593.50
2022-08-18T15:00:56.839Z,101595.03
2022-08-18T15:03:28.399Z,101600.28
2022-08-18T15:05:59.618Z,101611.59
2022-08-18T15:08:26.685Z,101618.34
2022-08-18T15:10:54.196Z,101619.72
2022-08-18T15:13:20.981Z,101613.94
2022-08-18T15:15:53.686Z,101624.88
2022-08-18T15:18:22.808Z,101615.03
2022-08-18T15:21:10.189Z,101604.22
2022-08-18T15:23:57.481Z,101597.13
2022-08-18T15:26:26.447Z,101579.84
2022-08-18T15:29:00.236Z,101592.06
2022-08-18T15:34:14.766Z,101545.97
2022-08-18T15:36:48.270Z,101544.75
2022-08-18T15:39:15.800Z,101559.44
2022-08-18T15:41:46.650Z,101559.41
2022-08-18T15:44:20.933Z,101561.53
2022-08-18T15:46:53.449Z,101539.78
2022-08-18T15:49:21.924Z,101541.03
2022-08-18T15:51:50.020Z,101541.28
2022-08-18T15:54:19.750Z,101543.91
2022-08-18T15:56:57.870Z,101544.94
2022-08-18T15:59:39.619Z,101541.69
2022-08-18T16:02:11.787Z,101533.34
2022-08-18T16:04:45.160Z,101538.94
2022-08-18T16:07:12.030Z,101549.25
2022-08-18T16:09:38.902Z,101553.03
2022-08-18T16:12:08.679Z,101549.53
2022-08-18T16:14:41.288Z,101557.03
2022-08-18T16:17:09.477Z,101551.97
2022-08-18T16:19:44.964Z,101552.81
2022-08-18T16:22:11.863Z,101549.13
2022-08-18T16:24:38.972Z,101562.41
2022-08-18T16:27:09.279Z,101557.81
2022-08-18T16:29:36.518Z,101553.94
2022-08-18T16:32:03.734Z,101563.94
2022-08-18T16:34:31.354Z,101544.69
2022-08-18T16:36:58.196Z,101546.38
2022-08-18T16:39:24.922Z,101556.56
2022-08-18T16:41:51.719Z,101566.41
2022-08-18T16:44:19.384Z,101578.47
2022-08-18T16:46:46.634Z,101594.19
2022-08-18T16:49:13.461Z,101610.50
2022-08-18T16:51:40.897Z,101620.28
2022-08-18T16:54:07.719Z,101629.38
2022-08-18T16:56:36.614Z,101635.53
2022-08-18T16:59:22.699Z,101640.09
2022-08-18T17:02:07.896Z,101642.69
2022-08-18T17:04:34.842Z,101648.75
2022-08-18T17:07:05.877Z,101656.91
2022-08-18T17:09:33.993Z,101650.66
2022-08-18T17:12:01.482Z,101657.56
2022-08-18T17:14:30.922Z,101664.69
2022-08-18T17:16:58.913Z,101665.03
2022-08-18T17:19:30.058Z,101675.69
2022-08-18T17:21:57.190Z,101691.91
2022-08-18T17:24:31.160Z,101707.59
2022-08-18T17:27:26.235Z,101723.88
2022-08-18T17:30:03.361Z,101723.50
2022-08-18T17:32:46.656Z,101736.47
2022-08-18T17:35:29.295Z,101746.66
2022-08-18T17:38:18.985Z,101757.31
2022-08-18T17:40:49.946Z,101760.13
2022-08-18T17:43:25.788Z,101775.47
2022-08-18T17:45:57.400Z,101780.34
2022-08-18T17:48:28.853Z,101781.38
2022-08-18T17:51:34.068Z,101773.94
2022-08-18T17:54:38.320Z,101772.31
2022-08-18T17:57:16.428Z,101779.59
2022-08-18T18:00:11.414Z,101796.06
2022-08-18T18:02:45.167Z,101805.53
2022-08-18T18:05:15.118Z,101826.34
2022-08-18T18:07:45.203Z,101853.34
2022-08-18T18:10:25.070Z,101864.38
2022-08-18T18:13:11.081Z,101884.75
2022-08-18T18:15:43.374Z,101899.91
2022-08-18T18:18:41.980Z,101901.78
2022-08-18T18:21:14.753Z,101902.06
2022-08-18T18:23:46.295Z,101924.63
2022-08-18T18:26:37.358Z,101942.00
2022-08-18T18:29:33.274Z,101969.19
2022-08-18T18:32:05.579Z,101996.19
2022-08-18T18:34:44.296Z,102021.19
2022-08-18T18:37:29.036Z,102052.75
2022-08-18T18:40:02.096Z,102087.94
2022-08-18T18:42:36.452Z,102109.50
2022-08-18T18:45:13.705Z,102131.81
2022-08-18T18:48:51.064Z,102179.13
2022-08-18T18:51:19.592Z,102207.88
2022-08-18T18:54:06.605Z,102241.88
2022-08-18T18:56:49.464Z,102279.28
2022-08-18T18:59:40.747Z,102311.50
2022-08-18T19:02:13.694Z,102220.66
2022-08-18T19:05:15.833Z,102253.69
2022-08-18T19:07:51.519Z,102277.88
2022-08-18T19:10:30.303Z,102306.19
2022-08-18T19:13:08.413Z,102333.66
2022-08-18T19:15:38.635Z,102355.97
2022-08-18T19:18:21.720Z,102371.34
2022-08-18T19:22:03.940Z,102420.09
2022-08-18T19:23:55.590Z,102437.75
2022-08-18T19:26:28.344Z,102472.16
2022-08-18T19:29:12.433Z,102493.28
2022-08-18T19:32:07.324Z,102522.50
2022-08-18T19:34:51.650Z,102528.28
2022-08-18T19:37:27.422Z,102531.38
2022-08-18T19:40:27.163Z,102549.38
2022-08-18T19:43:38.984Z,102577.72
2022-08-18T19:46:12.630Z,102595.53
2022-08-18T19:48:51.518Z,102609.03
2022-08-18T19:51:40.810Z,102626.06
2022-08-18T19:54:53.290Z,102647.41
2022-08-18T19:57:40.667Z,102667.81
2022-08-18T20:00:18.245Z,102695.22
2022-08-18T20:03:04.902Z,102715.63
2022-08-18T20:05:52.812Z,102739.44
2022-08-18T20:08:28.511Z,102752.69
2022-08-18T20:11:15.155Z,102792.53
2022-08-18T20:13:44.659Z,102819.91
2022-08-18T20:16:35.533Z,102855.31
2022-08-18T20:19:48.530Z,102877.38
2022-08-18T20:22:22.033Z,102902.16
2022-08-18T20:25:11.312Z,102918.09
2022-08-18T20:27:58.085Z,102940.25
2022-08-18T20:30:48.366Z,102964.88
2022-08-18T20:33:24.260Z,102978.94
2022-08-18T20:36:15.280Z,102998.31
2022-08-18T20:38:53.085Z,103026.53
2022-08-18T20:41:19.853Z,103043.22
2022-08-18T20:43:50.289Z,103060.09
2022-08-18T20:46:43.486Z,103053.28
2022-08-18T20:49:46.743Z,103053.47
2022-08-18T20:52:37.301Z,103064.19
2022-08-18T20:55:24.427Z,103066.94
2022-08-18T20:57:55.636Z,103072.25
2022-08-18T21:00:26.926Z,103101.31
2022-08-18T21:02:59.287Z,103111.06
2022-08-18T21:05:37.938Z,103125.19
2022-08-18T21:08:16.747Z,103150.78
2022-08-18T21:10:54.137Z,103171.94
2022-08-18T21:13:47.697Z,103187.81
2022-08-18T21:16:37.679Z,103201.84
2022-08-18T21:19:14.455Z,103219.50
2022-08-18T21:21:48.993Z,103234.47
2022-08-18T21:24:36.140Z,103270.59
2022-08-18T21:27:07.461Z,103275.91
2022-08-18T21:29:51.417Z,103285.63
2022-08-18T21:32:31.445Z,103297.06
2022-08-18T21:35:07.984Z,103304.16
2022-08-18T21:37:41.254Z,103320.00
2022-08-18T21:40:08.547Z,103337.63
2022-08-18T21:42:45.907Z,103353.50
2022-08-18T21:45:18.552Z,103354.38
2022-08-18T21:47:51.656Z,103375.53
2022-08-18T21:50:24.698Z,103387.88
2022-08-18T21:53:05.359Z,103400.22
2022-08-18T21:55:50.066Z,103427.53
2022-08-18T21:58:33.886Z,103443.34
2022-08-18T22:01:10.204Z,103456.56
2022-08-18T22:04:02.857Z,103467.16
2022-08-18T22:06:40.951Z,103466.28
2022-08-18T22:09:29.158Z,103488.28
2022-08-18T22:12:33.331Z,103496.22
2022-08-18T22:15:17.729Z,103503.28
2022-08-18T22:17:48.275Z,103514.72
2022-08-18T22:20:33.691Z,103520.03
2022-08-18T22:23:34.658Z,103512.13
2022-08-18T22:26:16.573Z,103523.56
2022-08-18T22:28:58.326Z,103528.00
2022-08-18T22:31:36.732Z,103531.44
2022-08-18T22:34:11.026Z,103534.09
2022-08-18T22:36:40.846Z,103521.78
2022-08-18T22:39:12.456Z,103520.03
2022-08-18T22:41:41.609Z,103520.06
2022-08-18T22:44:08.860Z,103515.69
2022-08-18T22:46:36.946Z,103520.97
2022-08-18T22:49:04.774Z,103537.66
2022-08-18T22:51:33.356Z,103538.56
2022-08-18T22:54:00.235Z,103535.91
2022-08-18T22:56:34.509Z,103546.44
2022-08-18T22:59:13.478Z,103526.22
2022-08-18T23:01:45.228Z,103020.66
2022-08-18T23:04:12.508Z,103016.22
2022-08-18T23:06:39.295Z,103016.22
2022-08-18T23:09:06.126Z,103023.38
2022-08-18T23:11:33.534Z,103029.53
2022-08-18T23:14:02.203Z,103033.00
2022-08-18T23:16:31.340Z,103029.50
2022-08-18T23:19:01.880Z,103018.09
2022-08-18T23:21:35.455Z,103021.63
2022-08-18T23:24:07.369Z,103028.50
2022-08-18T23:26:34.610Z,103041.66
2022-08-18T23:29:03.507Z,103055.69
2022-08-18T23:31:31.475Z,103066.97
2022-08-18T23:34:00.604Z,103070.41
2022-08-18T23:36:29.541Z,103090.63
2022-08-18T23:38:56.855Z,103077.44
2022-08-18T23:41:23.803Z,103082.72
2022-08-18T23:43:51.202Z,103056.31
2022-08-18T23:46:23.597Z,103046.78
2022-08-18T23:48:52.728Z,103037.13
2022-08-18T23:51:32.021Z,103020.53
2022-08-18T23:54:02.208Z,103011.81
2022-08-18T23:56:30.581Z,103009.28
2022-08-18T23:58:58.535Z,103031.09
